Time;durP1;ratioP1;P1;durP2;ratioP2;P2;SDS_P1;SDS_P2;PMS_P1;PMS_P2;Temp;Humidity;BMP_temperature;BMP_pressure;BME280_temperature;BME280_humidity;BME280_pressure;Samples;Min_cycle;Max_cycle;Signal;HPM_P1;HPM_P2
2022/11/14 00:00:05;;;;;;;16.98;10.68;;;8.60;99.90;;;;;;4988436;28;25053;-74
2022/11/14 00:02:31;;;;;;;14.90;9.27;;;8.60;99.90;;;;;;4990218;28;25119;-74
2022/11/14 00:04:56;;;;;;;20.73;11.15;;;8.70;99.90;;;;;;4991051;28;25056;-74
2022/11/14 00:07:22;;;;;;;19.02;11.45;;;8.70;99.90;;;;;;4982036;28;25078;-73
2022/11/14 00:09:47;;;;;;;20.55;11.23;;;8.70;99.90;;;;;;4990197;28;25074;-74
2022/11/14 00:12:13;;;;;;;21.27;11.25;;;8.70;99.90;;;;;;4995326;28;25100;-74
2022/11/14 00:14:38;;;;;;;21.50;11.00;;;8.60;99.90;;;;;;4985332;28;25060;-73
2022/11/14 00:17:04;;;;;;;15.50;10.13;;;8.60;99.90;;;;;;4984527;28;25068;-73
2022/11/14 00:19:30;;;;;;;18.85;10.60;;;8.60;99.90;;;;;;4992690;28;25121;-73
2022/11/14 00:21:56;;;;;;;18.60;9.63;;;8.50;99.90;;;;;;4993393;28;25132;-74
2022/11/14 00:24:21;;;;;;;17.63;11.07;;;8.40;99.90;;;;;;4983066;28;25138;-73
2022/11/14 00:26:47;;;;;;;18.85;10.38;;;8.30;99.90;;;;;;4978390;28;25083;-74
2022/11/14 00:29:14;;;;;;;20.00;10.60;;;8.40;99.90;;;;;;4978047;28;25104;-74
2022/11/14 00:31:40;;;;;;;17.80;10.30;;;8.40;99.90;;;;;;4979432;28;25083;-74
2022/11/14 00:34:06;;;;;;;16.35;9.75;;;8.60;99.90;;;;;;4990471;28;25081;-74
2022/11/14 00:36:32;;;;;;;17.17;10.55;;;8.50;99.90;;;;;;4995439;28;25120;-74
2022/11/14 00:38:57;;;;;;;16.17;10.00;;;8.50;99.90;;;;;;5002287;28;25121;-74
2022/11/14 00:41:23;;;;;;;19.90;10.30;;;8.50;99.90;;;;;;5005214;28;25073;-74
2022/11/14 00:43:48;;;;;;;18.10;10.50;;;8.50;99.90;;;;;;5025541;28;25057;-74
2022/11/14 00:46:14;;;;;;;16.35;9.07;;;8.50;99.90;;;;;;5002726;28;25089;-75
2022/11/14 00:48:40;;;;;;;15.90;10.70;;;8.50;99.90;;;;;;5000609;28;25052;-74
2022/11/14 00:51:05;;;;;;;13.85;9.18;;;8.50;99.90;;;;;;4993487;28;25154;-74
2022/11/14 00:53:31;;;;;;;22.30;9.90;;;8.50;99.90;;;;;;4991052;28;25063;-74
2022/11/14 00:55:57;;;;;;;19.10;10.82;;;8.60;99.90;;;;;;4986054;28;25069;-73
2022/11/14 00:58:22;;;;;;;18.85;9.85;;;8.60;99.90;;;;;;5009429;28;25071;-75
2022/11/14 01:00:48;;;;;;;16.48;9.60;;;8.50;99.90;;;;;;4983057;28;25098;-74
2022/11/14 01:03:14;;;;;;;19.02;9.20;;;8.50;99.90;;;;;;4986713;28;25095;-73
2022/11/14 01:05:50;;;;;;;18.23;9.40;;;8.40;99.90;;;;;;5003146;28;25073;-73
2022/11/14 01:08:18;;;;;;;20.15;10.65;;;8.40;99.90;;;;;;4993704;28;25127;-73
2022/11/14 01:10:47;;;;;;;18.58;9.65;;;8.40;99.90;;;;;;4996286;28;25059;-73
2022/11/14 01:13:13;;;;;;;16.58;9.65;;;8.40;99.90;;;;;;4992414;28;25112;-74
2022/11/14 01:15:40;;;;;;;12.80;8.63;;;8.40;99.90;;;;;;4989197;28;25082;-74
2022/11/14 01:18:06;;;;;;;15.48;8.63;;;8.30;99.90;;;;;;4987711;28;25064;-73
2022/11/14 01:20:32;;;;;;;16.67;9.50;;;8.30;99.90;;;;;;4987777;28;25152;-73
2022/11/14 01:22:58;;;;;;;17.52;9.00;;;8.20;99.90;;;;;;4990065;28;25068;-74
2022/11/14 01:25:23;;;;;;;15.57;8.48;;;8.10;99.90;;;;;;4988515;28;25078;-74
2022/11/14 01:27:49;;;;;;;17.42;9.02;;;8.10;99.90;;;;;;4988246;28;25049;-74
2022/11/14 01:30:15;;;;;;;17.55;9.13;;;8.00;99.90;;;;;;4992268;28;25115;-73
2022/11/14 01:32:40;;;;;;;17.58;9.60;;;8.00;99.90;;;;;;4991769;28;25064;-73
2022/11/14 01:35:06;;;;;;;14.93;8.48;;;8.00;99.90;;;;;;4986442;28;25108;-73
2022/11/14 01:37:32;;;;;;;12.80;8.32;;;8.00;99.90;;;;;;4993609;28;25062;-73
2022/11/14 01:39:57;;;;;;;15.35;8.93;;;7.90;99.90;;;;;;4990845;28;25063;-74
2022/11/14 01:42:23;;;;;;;14.90;8.95;;;7.90;99.90;;;;;;4998830;28;25061;-74
2022/11/14 01:44:51;;;;;;;15.00;8.93;;;7.90;99.90;;;;;;5002932;28;25069;-72
2022/11/14 01:47:22;;;;;;;16.88;8.77;;;7.90;99.90;;;;;;4980762;28;25054;-73
2022/11/14 01:49:53;;;;;;;12.88;8.73;;;7.90;99.90;;;;;;4989851;28;25151;-73
2022/11/14 01:52:18;;;;;;;12.88;8.77;;;8.00;99.90;;;;;;4985111;28;25189;-73
2022/11/14 01:54:47;;;;;;;16.33;9.80;;;8.00;99.90;;;;;;4988561;28;25100;-73
2022/11/14 01:57:16;;;;;;;13.90;8.75;;;7.90;99.90;;;;;;4997402;28;25054;-74
2022/11/14 01:59:46;;;;;;;14.25;8.60;;;8.00;99.90;;;;;;5001749;28;25076;-73
2022/11/14 02:02:18;;;;;;;16.35;8.65;;;7.90;99.90;;;;;;4992581;28;25149;-72
2022/11/14 02:04:57;;;;;;;14.80;8.55;;;7.80;99.90;;;;;;4984822;28;25054;-70
2022/11/14 02:07:26;;;;;;;13.95;8.80;;;7.70;99.90;;;;;;4985202;28;25134;-71
2022/11/14 02:09:53;;;;;;;14.35;7.88;;;7.70;99.90;;;;;;4990643;28;25111;-71
2022/11/14 02:12:19;;;;;;;14.38;8.80;;;7.70;99.90;;;;;;4979744;28;25057;-72
2022/11/14 02:14:47;;;;;;;13.57;8.27;;;7.80;99.90;;;;;;4984359;28;25079;-72
2022/11/14 02:17:14;;;;;;;17.20;9.73;;;7.70;99.90;;;;;;4983695;28;25075;-71
2022/11/14 02:19:51;;;;;;;12.45;7.80;;;7.70;99.90;;;;;;4997914;28;25062;-72
2022/11/14 02:22:16;;;;;;;14.43;7.50;;;7.80;99.90;;;;;;4983603;28;25074;-72
2022/11/14 02:24:42;;;;;;;14.90;7.80;;;7.80;99.90;;;;;;4990442;28;25138;-69
2022/11/14 02:27:10;;;;;;;11.07;7.57;;;7.80;99.90;;;;;;4998908;28;25143;-72
2022/11/14 02:29:36;;;;;;;13.27;8.77;;;7.70;99.90;;;;;;5004638;28;25078;-72
2022/11/14 02:32:02;;;;;;;15.07;8.63;;;7.80;99.90;;;;;;4998532;28;25050;-72
2022/11/14 02:34:28;;;;;;;11.95;7.88;;;7.70;99.90;;;;;;4991405;28;25070;-71
2022/11/14 02:36:54;;;;;;;16.83;9.00;;;7.70;99.90;;;;;;4994445;28;25115;-70
2022/11/14 02:39:20;;;;;;;14.93;8.85;;;7.70;99.90;;;;;;4989460;28;25056;-72
2022/11/14 02:41:45;;;;;;;15.85;8.73;;;7.70;99.90;;;;;;4983831;28;25051;-72
2022/11/14 02:44:11;;;;;;;16.48;8.57;;;7.60;99.90;;;;;;4992735;28;25112;-72
2022/11/14 02:46:37;;;;;;;15.77;8.38;;;7.60;99.90;;;;;;4999296;28;25054;-71
2022/11/14 02:49:02;;;;;;;15.55;8.95;;;7.70;99.90;;;;;;4984474;28;25101;-71
2022/11/14 02:51:28;;;;;;;14.30;7.85;;;7.70;99.90;;;;;;4994366;28;25113;-71
2022/11/14 02:53:53;;;;;;;18.73;9.60;;;7.70;99.90;;;;;;4991841;28;25087;-72
2022/11/14 02:56:19;;;;;;;16.48;9.57;;;7.60;99.90;;;;;;4997812;28;25061;-71
2022/11/14 02:58:44;;;;;;;13.93;8.52;;;7.50;99.90;;;;;;4987312;28;25068;-72
2022/11/14 03:01:10;;;;;;;15.77;9.30;;;7.50;99.90;;;;;;4989713;28;25102;-71
2022/11/14 03:03:36;;;;;;;16.92;9.02;;;7.50;99.90;;;;;;4985997;28;25102;-73
2022/11/14 03:06:03;;;;;;;17.17;9.52;;;7.40;99.90;;;;;;4989894;28;25091;-72
2022/11/14 03:08:28;;;;;;;14.43;9.02;;;7.40;99.90;;;;;;4988267;28;25098;-72
2022/11/14 03:10:54;;;;;;;15.05;8.85;;;7.30;99.90;;;;;;4993716;28;25132;-72
2022/11/14 03:13:20;;;;;;;17.90;9.65;;;7.30;99.90;;;;;;4986183;28;25097;-71
2022/11/14 03:15:46;;;;;;;18.55;9.50;;;7.20;99.90;;;;;;4994555;28;25097;-71
2022/11/14 03:18:12;;;;;;;15.85;9.50;;;7.30;99.90;;;;;;4991013;28;25067;-72
2022/11/14 03:20:38;;;;;;;16.02;9.25;;;7.30;99.90;;;;;;4988259;28;25063;-73
2022/11/14 03:23:04;;;;;;;18.17;9.70;;;7.30;99.90;;;;;;4986548;28;25056;-72
2022/11/14 03:25:29;;;;;;;18.45;10.45;;;7.20;99.90;;;;;;5000502;28;25053;-72
2022/11/14 03:27:55;;;;;;;17.98;10.13;;;7.20;99.90;;;;;;4984037;28;25069;-71
2022/11/14 03:30:21;;;;;;;19.00;9.45;;;7.20;99.90;;;;;;5000710;28;25101;-72
2022/11/14 03:32:46;;;;;;;21.38;10.45;;;7.20;99.90;;;;;;4988276;28;25158;-72
2022/11/14 03:35:12;;;;;;;17.80;10.07;;;7.20;99.90;;;;;;4985014;28;25130;-71
2022/11/14 03:37:37;;;;;;;19.85;10.38;;;7.10;99.90;;;;;;4983043;28;25083;-72
2022/11/14 03:40:04;;;;;;;18.42;9.77;;;7.10;99.90;;;;;;4981628;28;25058;-72
2022/11/14 03:42:33;;;;;;;18.35;10.52;;;7.10;99.90;;;;;;5005422;28;25068;-72
2022/11/14 03:44:59;;;;;;;16.08;10.35;;;7.10;99.90;;;;;;4984512;28;25112;-71
2022/11/14 03:47:24;;;;;;;23.30;11.63;;;7.10;99.90;;;;;;4983981;28;25073;-72
2022/11/14 03:49:50;;;;;;;22.20;10.55;;;7.20;99.90;;;;;;4980726;28;25101;-72
2022/11/14 03:52:15;;;;;;;18.50;10.15;;;7.20;99.90;;;;;;4981818;28;25086;-72
2022/11/14 03:54:41;;;;;;;18.00;10.27;;;7.10;99.90;;;;;;4992432;28;25080;-72
2022/11/14 03:57:07;;;;;;;21.85;11.57;;;7.10;99.90;;;;;;4982114;28;25044;-72
2022/11/14 03:59:32;;;;;;;22.98;11.60;;;7.10;99.90;;;;;;4985728;28;25058;-71
2022/11/14 04:01:58;;;;;;;18.27;9.93;;;7.10;99.90;;;;;;5003975;28;25107;-72
2022/11/14 04:04:24;;;;;;;19.15;10.93;;;7.10;99.90;;;;;;4982845;28;25098;-71
2022/11/14 04:06:49;;;;;;;21.83;11.32;;;7.10;99.90;;;;;;4982652;28;25076;-73
2022/11/14 04:09:15;;;;;;;21.85;11.23;;;7.10;99.90;;;;;;4981333;28;25063;-73
2022/11/14 04:11:40;;;;;;;19.00;10.65;;;7.00;99.90;;;;;;4981282;28;25075;-73
2022/11/14 04:14:06;;;;;;;21.70;12.20;;;7.00;99.90;;;;;;4986096;28;25066;-74
2022/11/14 04:16:32;;;;;;;19.80;11.82;;;7.00;99.90;;;;;;4986688;28;25146;-74
2022/11/14 04:18:57;;;;;;;23.85;12.10;;;7.00;99.90;;;;;;4986778;28;25066;-73
2022/11/14 04:21:23;;;;;;;25.40;12.20;;;7.00;99.90;;;;;;5003215;28;25064;-74
2022/11/14 04:23:49;;;;;;;22.38;12.02;;;7.00;99.90;;;;;;4990061;28;25061;-75
2022/11/14 04:26:14;;;;;;;25.23;11.73;;;6.90;99.90;;;;;;4991911;28;25149;-73
2022/11/14 04:28:40;;;;;;;19.65;10.82;;;7.00;99.90;;;;;;4984094;28;25061;-73
2022/11/14 04:31:05;;;;;;;23.98;11.55;;;6.90;99.90;;;;;;4990556;28;25077;-75
2022/11/14 04:33:31;;;;;;;18.92;11.02;;;6.80;99.90;;;;;;4987178;28;25082;-73
2022/11/14 04:35:56;;;;;;;21.02;11.50;;;6.80;99.90;;;;;;4996782;28;25145;-74
2022/11/14 04:38:22;;;;;;;25.08;11.70;;;6.80;99.90;;;;;;4988616;28;25076;-74
2022/11/14 04:40:50;;;;;;;22.80;12.32;;;6.80;99.90;;;;;;4985968;28;25139;-74
2022/11/14 04:43:15;;;;;;;26.50;12.27;;;6.80;99.90;;;;;;5001998;28;25134;-73
2022/11/14 04:45:41;;;;;;;25.17;12.90;;;6.80;99.90;;;;;;4985277;28;25079;-73
2022/11/14 04:48:07;;;;;;;22.30;11.77;;;6.70;99.90;;;;;;4986864;28;25064;-73
2022/11/14 04:50:32;;;;;;;21.75;11.90;;;6.70;99.90;;;;;;4990387;28;25065;-74
2022/11/14 04:52:58;;;;;;;23.45;12.68;;;6.70;99.90;;;;;;4988934;28;25070;-74
2022/11/14 04:55:23;;;;;;;24.75;12.70;;;6.70;99.90;;;;;;4988558;28;25080;-72
2022/11/14 04:57:56;;;;;;;30.67;14.00;;;6.70;99.90;;;;;;4992865;28;25072;-72
2022/11/14 05:00:23;;;;;;;26.15;12.43;;;6.70;99.90;;;;;;4984611;28;25116;-73
2022/11/14 05:02:48;;;;;;;24.70;12.70;;;6.60;99.90;;;;;;4987223;28;25092;-73
2022/11/14 05:05:14;;;;;;;26.75;13.13;;;6.70;99.90;;;;;;4988328;28;25137;-74
2022/11/14 05:07:40;;;;;;;20.67;11.63;;;6.70;99.90;;;;;;4993424;28;25088;-74
2022/11/14 05:10:07;;;;;;;20.13;12.25;;;6.70;99.90;;;;;;4995704;28;25141;-75
2022/11/14 05:12:32;;;;;;;21.63;12.38;;;6.70;99.90;;;;;;4992707;28;25071;-74
2022/11/14 05:14:58;;;;;;;18.95;11.23;;;6.70;99.90;;;;;;5000690;28;25125;-73
2022/11/14 05:17:24;;;;;;;23.60;11.38;;;6.60;99.90;;;;;;5002251;28;25148;-74
2022/11/14 05:19:50;;;;;;;20.65;12.00;;;6.60;99.90;;;;;;4984796;28;25114;-74
2022/11/14 05:22:16;;;;;;;23.20;11.18;;;6.60;99.90;;;;;;4991593;28;25109;-74
2022/11/14 05:24:42;;;;;;;27.85;12.38;;;6.50;99.90;;;;;;4986277;28;25144;-73
2022/11/14 05:27:07;;;;;;;24.23;12.52;;;6.60;99.90;;;;;;4988089;28;25066;-74
2022/11/14 05:29:33;;;;;;;26.83;12.32;;;6.50;99.90;;;;;;4993570;28;25063;-74
2022/11/14 05:31:59;;;;;;;22.77;11.32;;;6.60;99.90;;;;;;4988537;28;25089;-73
2022/11/14 05:34:25;;;;;;;20.85;11.00;;;6.50;99.90;;;;;;4984440;28;25126;-74
2022/11/14 05:36:50;;;;;;;17.33;10.05;;;6.60;99.90;;;;;;5007208;28;25161;-74
2022/11/14 05:39:16;;;;;;;25.73;11.63;;;6.50;99.90;;;;;;4991254;28;25062;-73
2022/11/14 05:41:42;;;;;;;23.95;11.25;;;6.60;99.90;;;;;;4984171;28;25125;-73
2022/11/14 05:44:07;;;;;;;20.23;11.23;;;6.50;99.90;;;;;;4983667;28;25053;-73
2022/11/14 05:46:33;;;;;;;19.90;11.85;;;6.60;99.90;;;;;;5003548;28;25133;-73
2022/11/14 05:48:59;;;;;;;20.77;11.10;;;6.50;99.90;;;;;;4984824;28;25065;-74
2022/11/14 05:51:25;;;;;;;20.05;10.80;;;6.50;99.90;;;;;;4984129;28;25107;-74
2022/11/14 05:53:51;;;;;;;23.58;11.45;;;6.40;99.90;;;;;;4984155;28;25062;-73
2022/11/14 05:56:16;;;;;;;28.45;13.05;;;6.50;99.90;;;;;;4983795;28;25102;-73
2022/11/14 05:58:42;;;;;;;23.63;11.23;;;6.50;99.90;;;;;;5002998;28;25057;-74
2022/11/14 06:01:13;;;;;;;23.15;11.75;;;6.50;99.90;;;;;;4991669;28;25124;-75
2022/11/14 06:03:42;;;;;;;18.83;10.50;;;6.50;99.90;;;;;;4991678;28;25077;-74
2022/11/14 06:06:10;;;;;;;25.45;11.18;;;6.50;99.90;;;;;;5001418;28;25117;-75
2022/11/14 06:08:36;;;;;;;19.08;11.55;;;6.50;99.90;;;;;;4989581;28;25078;-73
2022/11/14 06:11:09;;;;;;;25.63;11.65;;;6.50;99.90;;;;;;4987310;28;25123;-74
2022/11/14 06:13:35;;;;;;;16.75;10.30;;;6.50;99.90;;;;;;4988011;28;24896;-74
2022/11/14 06:16:02;;;;;;;22.00;11.25;;;6.40;99.90;;;;;;4985744;28;25055;-74
2022/11/14 06:18:29;;;;;;;20.13;9.85;;;6.40;99.90;;;;;;4982055;28;25082;-73
2022/11/14 06:20:59;;;;;;;24.08;11.95;;;6.40;99.90;;;;;;4984776;28;25151;-72
2022/11/14 06:23:25;;;;;;;21.58;11.20;;;6.40;99.90;;;;;;4985494;28;25070;-74
2022/11/14 06:25:50;;;;;;;23.50;11.77;;;6.40;99.90;;;;;;5010814;28;25069;-73
2022/11/14 06:28:16;;;;;;;22.98;12.18;;;6.40;99.90;;;;;;4987063;28;25123;-73
2022/11/14 06:30:42;;;;;;;21.98;11.65;;;6.40;99.90;;;;;;4984891;28;25047;-74
2022/11/14 06:33:07;;;;;;;23.95;11.63;;;6.40;99.90;;;;;;4988271;28;25065;-74
2022/11/14 06:35:34;;;;;;;20.60;10.98;;;6.30;99.90;;;;;;4985232;28;25066;-74
2022/11/14 06:37:59;;;;;;;23.02;11.98;;;6.30;99.90;;;;;;4988555;28;25117;-74
2022/11/14 06:40:25;;;;;;;23.52;11.23;;;6.30;99.90;;;;;;4987835;28;25134;-73
2022/11/14 06:42:54;;;;;;;24.20;11.43;;;6.20;99.90;;;;;;4995000;28;25059;-73
2022/11/14 06:45:20;;;;;;;19.98;11.20;;;6.20;99.90;;;;;;5002418;28;25059;-73
2022/11/14 06:47:45;;;;;;;23.75;11.95;;;6.10;99.90;;;;;;4992601;28;25103;-74
2022/11/14 06:50:11;;;;;;;22.20;11.32;;;6.20;99.90;;;;;;5000387;28;25134;-73
2022/11/14 06:52:36;;;;;;;18.95;10.75;;;6.10;99.90;;;;;;4984899;28;25096;-74
2022/11/14 06:55:02;;;;;;;24.77;11.35;;;6.10;99.90;;;;;;4985010;28;25058;-73
2022/11/14 06:57:28;;;;;;;20.02;11.05;;;6.10;99.90;;;;;;4980002;28;25139;-73
2022/11/14 06:59:53;;;;;;;19.23;10.35;;;6.10;99.90;;;;;;4983088;28;25051;-74
2022/11/14 07:02:19;;;;;;;22.23;10.32;;;6.10;99.90;;;;;;4984092;28;25121;-73
2022/11/14 07:04:45;;;;;;;18.58;9.40;;;6.10;99.90;;;;;;4983683;28;25120;-73
2022/11/14 07:07:10;;;;;;;22.23;9.70;;;6.10;99.90;;;;;;4986532;28;25100;-73
2022/11/14 07:09:36;;;;;;;29.00;10.65;;;6.20;99.90;;;;;;4982718;28;25124;-75
2022/11/14 07:12:01;;;;;;;18.85;9.95;;;6.20;99.90;;;;;;5000531;28;25084;-74
2022/11/14 07:14:27;;;;;;;21.27;10.27;;;6.20;99.90;;;;;;4985236;28;25157;-73
2022/11/14 07:16:53;;;;;;;20.60;9.55;;;6.10;99.90;;;;;;4985005;28;25057;-74
2022/11/14 07:19:18;;;;;;;17.27;9.40;;;6.10;99.90;;;;;;4982592;28;25105;-75
2022/11/14 07:21:44;;;;;;;17.17;9.80;;;6.20;99.90;;;;;;4988149;28;25056;-74
2022/11/14 07:24:10;;;;;;;18.90;10.18;;;6.30;99.90;;;;;;4984046;28;25098;-73
2022/11/14 07:26:35;;;;;;;17.52;9.68;;;6.30;99.90;;;;;;4979446;28;25065;-74
2022/11/14 07:29:01;;;;;;;17.00;9.63;;;6.30;99.90;;;;;;4985297;28;25080;-73
2022/11/14 07:31:26;;;;;;;17.88;9.35;;;6.20;99.90;;;;;;5002012;28;25070;-74
2022/11/14 07:33:53;;;;;;;22.17;9.48;;;6.30;99.90;;;;;;4983037;28;25134;-74
2022/11/14 07:36:18;;;;;;;13.23;8.18;;;6.30;99.90;;;;;;4983312;28;25062;-74
2022/11/14 07:38:44;;;;;;;18.05;9.55;;;6.40;99.90;;;;;;4981384;28;25114;-74
2022/11/14 07:41:13;;;;;;;17.42;9.65;;;6.40;99.90;;;;;;4985528;28;25106;-74
2022/11/14 07:43:39;;;;;;;17.95;9.55;;;6.30;99.90;;;;;;4987791;28;25147;-73
2022/11/14 07:46:09;;;;;;;17.60;8.68;;;6.30;99.90;;;;;;4986570;28;25074;-75
2022/11/14 07:48:34;;;;;;;17.17;9.05;;;6.30;99.90;;;;;;4988073;28;25089;-74
2022/11/14 07:51:02;;;;;;;13.77;8.98;;;6.40;99.90;;;;;;4991532;28;25083;-72
2022/11/14 07:53:28;;;;;;;13.48;7.65;;;6.50;99.90;;;;;;4996236;28;25063;-73
2022/11/14 07:55:54;;;;;;;15.88;8.10;;;6.50;99.90;;;;;;4990003;28;25144;-74
2022/11/14 07:58:20;;;;;;;14.07;8.10;;;6.50;99.90;;;;;;4989765;28;25083;-75
2022/11/14 08:00:46;;;;;;;15.88;8.25;;;6.50;99.90;;;;;;4994283;28;25057;-74
2022/11/14 08:03:11;;;;;;;14.75;8.52;;;6.50;99.90;;;;;;4991252;28;25029;-74
2022/11/14 08:05:37;;;;;;;16.05;8.85;;;6.50;99.90;;;;;;4999972;28;25068;-74
2022/11/14 08:08:03;;;;;;;16.95;8.38;;;6.50;99.90;;;;;;4986048;28;25124;-74
2022/11/14 08:10:28;;;;;;;15.45;8.27;;;6.50;99.90;;;;;;4985140;28;25133;-74
2022/11/14 08:13:04;;;;;;;17.42;8.65;;;6.50;99.90;;;;;;4992090;28;25126;-73
2022/11/14 08:15:31;;;;;;;17.90;8.18;;;6.50;99.90;;;;;;4992594;28;25159;-75
2022/11/14 08:17:57;;;;;;;14.23;8.30;;;6.50;99.90;;;;;;4990083;28;25067;-73
2022/11/14 08:20:25;;;;;;;14.30;8.95;;;6.40;99.90;;;;;;4988384;28;25074;-74
2022/11/14 08:22:51;;;;;;;13.13;8.20;;;6.40;99.90;;;;;;4987361;28;25054;-74
2022/11/14 08:25:17;;;;;;;14.10;7.65;;;6.50;99.90;;;;;;4996210;28;25070;-75
2022/11/14 08:27:43;;;;;;;13.70;8.00;;;6.50;99.90;;;;;;4991559;28;25075;-74
2022/11/14 08:30:09;;;;;;;15.52;7.95;;;6.50;99.90;;;;;;5002471;28;25072;-74
2022/11/14 08:32:34;;;;;;;14.10;7.20;;;6.50;99.90;;;;;;4998343;28;25085;-75
2022/11/14 08:35:00;;;;;;;12.35;7.57;;;6.50;99.90;;;;;;4981796;28;25050;-74
2022/11/14 08:37:26;;;;;;;19.65;9.07;;;6.50;99.90;;;;;;4995993;28;25064;-74
2022/11/14 08:39:51;;;;;;;13.80;8.10;;;6.70;99.90;;;;;;4986540;28;25066;-74
2022/11/14 08:42:17;;;;;;;14.70;8.10;;;6.60;99.90;;;;;;4985837;28;25083;-75
2022/11/14 08:44:42;;;;;;;16.77;8.40;;;6.70;99.90;;;;;;4995599;28;25161;-75
2022/11/14 08:47:08;;;;;;;14.82;8.00;;;6.70;99.90;;;;;;4996134;28;25124;-75
2022/11/14 08:49:34;;;;;;;14.13;8.35;;;6.80;99.90;;;;;;4989702;28;25102;-74
2022/11/14 08:51:59;;;;;;;13.27;7.35;;;6.80;99.90;;;;;;4992348;28;25050;-74
2022/11/14 08:54:25;;;;;;;16.90;8.43;;;7.00;99.90;;;;;;4992151;28;25137;-76
2022/11/14 08:56:50;;;;;;;14.35;8.38;;;7.10;99.90;;;;;;4992163;28;25122;-74
2022/11/14 08:59:16;;;;;;;14.77;8.52;;;7.20;99.90;;;;;;4989946;28;25058;-75
2022/11/14 09:01:42;;;;;;;20.50;8.88;;;7.30;99.90;;;;;;4995394;28;25081;-74
2022/11/14 09:04:08;;;;;;;14.57;8.23;;;7.20;99.90;;;;;;5005539;28;25107;-76
2022/11/14 09:06:33;;;;;;;12.93;7.63;;;7.40;99.90;;;;;;4999488;28;25081;-74
2022/11/14 09:08:59;;;;;;;15.77;7.28;;;7.50;99.90;;;;;;4992823;28;25070;-76
2022/11/14 09:11:25;;;;;;;13.75;8.00;;;7.50;99.90;;;;;;4985771;28;25102;-75
2022/11/14 09:13:50;;;;;;;14.00;7.50;;;7.60;99.90;;;;;;4987165;28;25065;-74
2022/11/14 09:16:16;;;;;;;10.88;7.40;;;7.60;99.90;;;;;;4988140;28;25065;-74
2022/11/14 09:18:42;;;;;;;14.07;7.85;;;7.60;99.90;;;;;;4993355;28;25158;-76
2022/11/14 09:21:09;;;;;;;12.35;8.25;;;7.60;99.90;;;;;;4997319;28;25149;-76
2022/11/14 09:23:35;;;;;;;15.50;7.53;;;7.60;99.90;;;;;;4994928;28;25133;-74
2022/11/14 09:26:05;;;;;;;14.07;7.65;;;7.60;99.90;;;;;;4994877;28;25103;-74
2022/11/14 09:28:31;;;;;;;13.27;8.25;;;7.80;99.90;;;;;;5012890;28;25080;-75
2022/11/14 09:31:02;;;;;;;14.85;8.35;;;7.70;99.90;;;;;;4991949;28;25069;-75
2022/11/14 09:33:27;;;;;;;13.75;7.95;;;7.70;99.90;;;;;;4978672;28;25077;-75
2022/11/14 09:35:57;;;;;;;17.30;8.13;;;7.80;99.90;;;;;;4987737;28;25054;-76
2022/11/14 09:38:23;;;;;;;15.10;8.20;;;7.90;99.90;;;;;;4990451;28;25095;-75
2022/11/14 09:41:07;;;;;;;15.27;8.02;;;7.90;99.90;;;;;;4990920;28;25116;-74
2022/11/14 09:43:51;;;;;;;15.05;8.27;;;8.00;99.90;;;;;;4984780;28;25108;-74
2022/11/14 09:46:22;;;;;;;13.00;8.98;;;8.00;99.90;;;;;;4987587;28;25116;-74
2022/11/14 09:48:50;;;;;;;13.25;7.95;;;7.90;99.90;;;;;;4988812;28;25088;-75
2022/11/14 09:51:23;;;;;;;14.13;7.63;;;8.00;99.90;;;;;;4985580;28;25070;-75
2022/11/14 09:53:59;;;;;;;14.95;7.20;;;8.10;99.90;;;;;;4992376;28;25087;-74
2022/11/14 09:56:25;;;;;;;12.80;7.63;;;8.10;99.90;;;;;;4983714;28;25083;-75
2022/11/14 09:58:53;;;;;;;15.27;7.90;;;8.20;99.90;;;;;;4984941;28;25082;-75
2022/11/14 10:01:37;;;;;;;12.70;7.05;;;8.20;99.90;;;;;;4983916;28;25103;-75
2022/11/14 10:04:21;;;;;;;13.07;7.05;;;8.40;99.90;;;;;;4983458;28;25067;-75
2022/11/14 10:06:57;;;;;;;13.60;7.38;;;8.40;99.90;;;;;;4993544;28;25169;-75
2022/11/14 10:09:35;;;;;;;13.25;7.47;;;8.40;99.90;;;;;;4981284;28;25127;-76
2022/11/14 10:12:16;;;;;;;10.65;7.28;;;8.40;99.90;;;;;;5010189;28;25109;-74
2022/11/14 10:15:09;;;;;;;15.77;7.63;;;8.50;99.90;;;;;;4995939;28;25111;-74
2022/11/14 10:17:43;;;;;;;14.75;8.60;;;8.40;99.90;;;;;;4986210;28;25095;-74
2022/11/14 10:20:47;;;;;;;15.93;8.75;;;8.40;99.90;;;;;;5002667;28;25115;-75
2022/11/14 10:23:44;;;;;;;13.18;7.78;;;8.70;99.90;;;;;;4985948;28;25126;-74
2022/11/14 10:26:31;;;;;;;15.82;8.18;;;9.00;99.90;;;;;;4994352;28;25101;-74
2022/11/14 10:29:43;;;;;;;14.63;8.25;;;8.90;99.90;;;;;;4982075;28;25093;-74
2022/11/14 10:32:32;;;;;;;16.00;7.72;;;8.70;99.90;;;;;;4988127;28;25151;-74
2022/11/14 10:35:10;;;;;;;14.25;7.40;;;9.00;99.90;;;;;;4980437;28;25068;-74
2022/11/14 10:37:43;;;;;;;11.85;7.50;;;9.40;99.90;;;;;;5001877;28;25054;-74
2022/11/14 10:40:17;;;;;;;13.75;7.28;;;9.60;99.90;;;;;;4982451;28;25062;-74
2022/11/14 10:42:47;;;;;;;13.93;8.25;;;9.60;99.90;;;;;;5009665;28;25146;-75
2022/11/14 10:45:30;;;;;;;18.13;7.80;;;9.90;99.90;;;;;;4990834;28;25067;-74
2022/11/14 10:48:01;;;;;;;10.18;6.75;;;9.90;99.90;;;;;;4990896;28;25066;-75
2022/11/14 10:50:55;;;;;;;13.13;7.43;;;10.00;99.90;;;;;;4996947;28;25049;-74
2022/11/14 10:53:47;;;;;;;13.75;7.68;;;10.20;99.90;;;;;;4979771;28;25093;-75
2022/11/14 10:56:13;;;;;;;13.65;7.70;;;10.10;99.90;;;;;;4979121;28;25168;-75
2022/11/14 10:58:42;;;;;;;15.05;7.90;;;10.10;99.90;;;;;;4984692;28;25085;-75
2022/11/14 11:01:35;;;;;;;14.57;8.45;;;10.10;99.90;;;;;;4988527;28;25068;-74
2022/11/14 11:04:20;;;;;;;14.60;7.45;;;10.10;99.90;;;;;;4978216;28;25137;-75
2022/11/14 11:06:50;;;;;;;13.38;8.15;;;10.30;99.90;;;;;;5001973;28;25164;-75
2022/11/14 11:12:16;;;;;;;13.38;8.02;;;10.20;99.90;;;;;;4987995;28;25163;-75
2022/11/14 11:14:42;;;;;;;14.85;7.85;;;10.30;99.90;;;;;;5008637;28;25080;-74
2022/11/14 11:17:11;;;;;;;13.90;7.80;;;10.60;99.90;;;;;;5008386;28;25059;-75
2022/11/14 11:19:41;;;;;;;13.70;7.88;;;11.00;99.90;;;;;;5006963;28;25079;-76
2022/11/14 11:22:27;;;;;;;13.40;7.53;;;10.90;99.90;;;;;;5002827;28;25061;-74
2022/11/14 11:24:52;;;;;;;12.60;7.80;;;11.50;99.90;;;;;;4994271;28;25051;-74
2022/11/14 11:27:21;;;;;;;16.00;7.82;;;11.50;99.90;;;;;;4985840;28;25062;-75
2022/11/14 11:30:05;;;;;;;11.30;7.65;;;11.40;99.90;;;;;;4991526;28;25162;-74
2022/11/14 11:32:31;;;;;;;15.23;8.23;;;11.50;99.90;;;;;;4990787;28;25084;-74
2022/11/14 11:34:59;;;;;;;12.25;7.75;;;11.80;99.90;;;;;;5003322;28;25057;-73
2022/11/14 11:37:43;;;;;;;11.38;7.85;;;11.60;99.90;;;;;;4994350;28;25061;-74
2022/11/14 11:40:16;;;;;;;13.02;7.45;;;11.50;99.90;;;;;;4990000;28;25073;-73
2022/11/14 11:43:03;;;;;;;13.45;7.68;;;11.40;99.90;;;;;;4982722;28;25070;-74
2022/11/14 11:45:31;;;;;;;13.60;8.38;;;11.50;99.90;;;;;;4999747;28;25081;-73
2022/11/14 11:48:01;;;;;;;13.57;7.35;;;11.60;99.90;;;;;;4983353;28;25068;-74
2022/11/14 11:50:27;;;;;;;16.02;8.43;;;11.60;99.90;;;;;;4983342;28;25175;-74
2022/11/14 11:53:03;;;;;;;37.67;11.65;;;11.80;99.90;;;;;;4987293;28;25075;-76
2022/11/14 11:55:32;;;;;;;17.40;9.02;;;11.80;99.90;;;;;;4983268;28;25102;-74
2022/11/14 11:58:24;;;;;;;15.10;8.63;;;12.00;99.90;;;;;;4989384;28;25070;-74
2022/11/14 12:00:56;;;;;;;14.07;8.70;;;12.60;99.90;;;;;;4998328;28;25074;-74
2022/11/14 12:03:24;;;;;;;15.73;8.30;;;12.80;99.90;;;;;;4983962;28;25126;-74
2022/11/14 12:05:58;;;;;;;15.93;8.30;;;13.10;99.90;;;;;;4992676;28;25110;-74
2022/11/14 12:08:45;;;;;;;19.17;9.65;;;13.00;99.90;;;;;;4983291;28;25057;-74
2022/11/14 12:11:17;;;;;;;17.20;10.05;;;12.70;99.90;;;;;;4982434;28;25111;-75
2022/11/14 12:14:20;;;;;;;17.05;10.27;;;13.00;99.90;;;;;;4987002;28;25069;-75
2022/11/14 12:17:17;;;;;;;18.15;10.07;;;13.00;99.90;;;;;;4999722;28;25067;-74
2022/11/14 12:19:56;;;;;;;17.98;10.15;;;12.80;99.90;;;;;;4983773;28;25104;-74
2022/11/14 12:22:36;;;;;;;18.75;8.60;;;12.70;99.90;;;;;;4998057;28;25104;-73
2022/11/14 12:25:08;;;;;;;17.23;9.70;;;12.90;99.90;;;;;;4982004;28;25056;-75
2022/11/14 12:28:32;;;;;;;17.13;8.67;;;12.90;99.90;;;;;;4982144;28;25129;-74
2022/11/14 12:31:04;;;;;;;14.27;8.90;;;13.00;99.90;;;;;;4972740;28;25080;-73
2022/11/14 12:33:34;;;;;;;;;;;13.10;99.90;;;;;;4983994;28;25060;-74
2022/11/14 12:36:03;;;;;;;14.20;8.60;;;13.00;99.90;;;;;;4996107;28;25368;-74
2022/11/14 12:38:44;;;;;;;18.52;9.90;;;13.00;99.90;;;;;;4989353;28;25111;-74
2022/11/14 12:41:11;;;;;;;14.98;9.05;;;13.00;99.90;;;;;;4990334;28;25152;-74
2022/11/14 12:43:41;;;;;;;15.93;8.77;;;13.00;99.90;;;;;;4995236;28;25064;-75
2022/11/14 12:46:12;;;;;;;17.55;9.85;;;13.30;99.90;;;;;;4999117;28;25145;-74
2022/11/14 12:48:40;;;;;;;14.65;9.60;;;13.50;99.90;;;;;;4993821;28;25110;-73
2022/11/14 12:51:26;;;;;;;18.20;9.50;;;13.40;99.90;;;;;;4987816;28;25150;-74
2022/11/14 12:53:53;;;;;;;16.80;9.35;;;13.20;99.90;;;;;;4962429;28;25056;-74